Time;durP1;ratioP1;P1;durP2;ratioP2;P2;SDS_P1;SDS_P2;PMS_P1;PMS_P2;Temp;Humidity;BMP_temperature;BMP_pressure;BME280_temperature;BME280_humidity;BME280_pressure;Samples;Min_cycle;Max_cycle;Signal;HPM_P1;HPM_P2
2023/12/11 00:01:31;;;;;;;10.43;7.35;;;;;;;19.57;41.39;101052.59;4623017;31;20059;-58
2023/12/11 00:03:59;;;;;;;8.32;7.40;;;;;;;19.56;41.46;101067.88;4620409;31;20059;-58
2023/12/11 00:06:26;;;;;;;8.05;7.25;;;;;;;19.56;41.45;101067.88;4619990;31;20055;-62
2023/12/11 00:08:54;;;;;;;8.32;7.43;;;;;;;19.56;41.59;101065.19;4620626;31;20059;-62
2023/12/11 00:11:22;;;;;;;8.95;7.72;;;;;;;19.56;41.56;101056.28;4622052;31;20082;-63
2023/12/11 00:13:50;;;;;;;7.75;6.60;;;;;;;19.56;41.72;101058.97;4620276;31;20059;-64
2023/12/11 00:16:19;;;;;;;9.38;7.13;;;;;;;19.56;41.89;101048.22;4619736;31;20063;-58
2023/12/11 00:18:48;;;;;;;9.05;7.13;;;;;;;19.56;41.63;101040.16;4620444;31;20052;-58
2023/12/11 00:21:16;;;;;;;9.40;7.43;;;;;;;19.55;41.68;101028.56;4621455;31;20059;-58
2023/12/11 00:23:44;;;;;;;7.78;7.00;;;;;;;19.55;41.77;101025.88;4619278;31;20131;-60
2023/12/11 00:26:12;;;;;;;8.93;7.70;;;;;;;19.55;41.66;101033.09;4632687;30;20079;-61
2023/12/11 00:28:40;;;;;;;8.55;7.22;;;;;;;19.56;41.68;101018.69;4619116;31;20056;-63
2023/12/11 00:31:08;;;;;;;10.25;7.57;;;;;;;19.55;41.69;101028.56;4622367;31;20385;-64
2023/12/11 00:33:39;;;;;;;8.52;7.45;;;;;;;19.54;41.88;101010.78;4619366;31;20063;-64
2023/12/11 00:36:08;;;;;;;9.60;7.93;;;;;;;19.55;41.71;101025.03;4619031;31;20545;-62
2023/12/11 00:38:35;;;;;;;7.63;6.78;;;;;;;19.56;41.93;101037.47;4618550;31;20055;-65
2023/12/11 00:41:03;;;;;;;10.00;8.52;;;;;;;19.55;41.82;101060.81;4620151;31;20439;-65
2023/12/11 00:43:30;;;;;;;9.93;8.18;;;;;;;19.56;41.79;101051.75;4619921;31;20524;-65
2023/12/11 00:46:19;;;;;;;12.00;8.77;;;;;;;19.54;41.73;101032.25;4619180;31;20060;-65
2023/12/11 00:48:47;;;;;;;11.52;8.40;;;;;;;19.54;41.74;101026.88;4613142;31;20055;-65
2023/12/11 00:51:19;;;;;;;10.27;8.40;;;;;;;19.52;41.87;101032.34;4609988;31;20063;-65
2023/12/11 00:53:47;;;;;;;9.90;8.55;;;;;;;19.53;41.75;101041.28;4619396;31;20060;-65
2023/12/11 00:56:15;;;;;;;9.43;8.30;;;;;;;19.52;41.84;101055.69;4620340;31;20405;-65
2023/12/11 00:58:43;;;;;;;8.40;7.50;;;;;;;19.51;41.81;101072.78;4619950;31;20063;-65
2023/12/11 01:01:10;;;;;;;10.00;8.70;;;;;;;19.52;41.75;101082.53;4615396;31;20060;-65
2023/12/11 01:03:38;;;;;;;9.20;8.10;;;;;;;19.51;41.65;101092.44;4612767;31;20060;-64
2023/12/11 01:06:07;;;;;;;9.00;7.80;;;;;;;19.52;41.93;101094.13;4618801;31;20047;-65
2023/12/11 01:08:38;;;;;;;11.82;9.13;;;;;;;19.51;41.74;101087.06;4619483;31;20055;-65
2023/12/11 01:11:07;;;;;;;8.33;7.50;;;;;;;19.52;41.86;101082.53;4618897;31;20052;-65
2023/12/11 01:13:34;;;;;;;11.57;8.32;;;;;;;19.51;41.83;101083.53;4618975;31;20055;-65
2023/12/11 01:16:02;;;;;;;9.90;8.48;;;;;;;19.51;41.84;101078.16;4621142;31;20060;-64
2023/12/11 01:18:29;;;;;;;9.20;8.10;;;;;;;19.50;41.82;101085.34;4620387;31;20048;-65
2023/12/11 01:20:57;;;;;;;10.55;8.70;;;;;;;19.50;41.78;101104.16;4619341;31;20060;-65
2023/12/11 01:23:25;;;;;;;10.02;7.75;;;;;;;19.50;42.05;101106.00;4618424;31;20064;-65
2023/12/11 01:25:52;;;;;;;10.13;8.15;;;;;;;19.49;41.80;101112.34;4621947;31;20063;-65
2023/12/11 01:28:20;;;;;;;8.90;7.47;;;;;;;19.48;41.77;101124.88;4619051;31;20047;-65
2023/12/11 01:30:47;;;;;;;9.30;8.30;;;;;;;19.48;41.94;101130.25;4618322;31;20067;-65
2023/12/11 01:33:14;;;;;;;10.18;8.45;;;;;;;19.47;41.71;101139.31;4618313;31;20059;-65
2023/12/11 01:35:42;;;;;;;10.02;7.65;;;;;;;19.47;41.95;101141.13;4620620;31;20082;-64
2023/12/11 01:38:10;;;;;;;11.02;8.38;;;;;;;19.47;41.84;101138.44;4618570;31;20485;-65
2023/12/11 01:40:38;;;;;;;10.27;8.75;;;;;;;19.47;41.84;101133.09;4618094;31;20071;-65
2023/12/11 01:43:12;;;;;;;9.23;8.05;;;;;;;19.46;41.97;101112.59;4618462;31;20056;-65
2023/12/11 01:45:57;;;;;;;9.95;8.00;;;;;;;19.47;41.80;101116.97;4622570;31;20491;-58
2023/12/11 01:48:25;;;;;;;10.15;8.20;;;;;;;19.45;42.00;101117.13;4616190;31;20066;-58
2023/12/11 01:50:53;;;;;;;11.07;8.05;;;;;;;19.44;41.88;101114.53;4601830;31;20541;-58
2023/12/11 01:53:21;;;;;;;10.65;8.73;;;;;;;19.44;42.08;101106.47;4619543;31;20063;-58
2023/12/11 01:55:49;;;;;;;9.23;8.02;;;;;;;19.44;42.11;101074.25;4618920;31;20063;-58
2023/12/11 01:58:17;;;;;;;9.55;7.55;;;;;;;19.44;42.10;101032.16;4618114;31;20415;-58
2023/12/11 02:00:45;;;;;;;8.60;7.70;;;;;;;19.44;41.96;101007.97;4618187;31;20064;-58
2023/12/11 02:03:12;;;;;;;9.82;8.25;;;;;;;19.44;42.13;101004.44;4620056;31;20062;-58
2023/12/11 02:05:43;;;;;;;8.98;8.07;;;;;;;19.44;42.05;100993.72;4618091;31;20066;-62
2023/12/11 02:08:11;;;;;;;8.77;7.88;;;;;;;19.44;42.22;100999.94;4621415;31;20071;-57
2023/12/11 02:10:38;;;;;;;9.30;7.75;;;;;;;19.44;42.12;100988.34;4618004;31;20060;-57
2023/12/11 02:13:06;;;;;;;9.50;7.88;;;;;;;19.43;42.10;100976.75;4620465;31;20062;-57
2023/12/11 02:15:43;;;;;;;9.68;8.18;;;;;;;19.43;42.01;100974.06;4617582;31;20056;-57
2023/12/11 02:18:13;;;;;;;9.10;7.43;;;;;;;19.44;42.10;100975.75;4611926;31;20043;-65
2023/12/11 02:20:42;;;;;;;8.93;7.60;;;;;;;19.43;42.14;101016.19;4619155;31;20056;-65
2023/12/11 02:23:24;;;;;;;10.55;8.00;;;;;;;19.42;42.03;101036.81;4618663;31;20063;-65
2023/12/11 02:26:13;;;;;;;9.77;7.57;;;;;;;19.42;42.31;100995.69;4618773;31;20071;-65
2023/12/11 02:28:41;;;;;;;8.52;7.47;;;;;;;19.41;42.14;101004.72;4619145;31;20067;-65
2023/12/11 02:31:08;;;;;;;9.05;8.10;;;;;;;19.41;42.01;100977.88;4618649;31;20404;-65
2023/12/11 02:33:37;;;;;;;9.43;7.70;;;;;;;19.41;41.97;100972.50;4617335;31;20060;-65
2023/12/11 02:36:05;;;;;;;9.10;7.88;;;;;;;19.41;42.07;100975.19;4617856;31;20059;-65
2023/12/11 02:38:32;;;;;;;9.25;8.10;;;;;;;19.40;42.18;100958.22;4618723;31;20077;-65
2023/12/11 02:41:00;;;;;;;9.02;7.75;;;;;;;19.41;42.12;100970.69;4618156;31;20067;-65
2023/12/11 02:43:27;;;;;;;9.60;7.85;;;;;;;19.40;42.11;101001.16;4617240;31;20082;-65
2023/12/11 02:45:55;;;;;;;10.55;8.38;;;;;;;19.40;42.18;101017.28;4617773;31;20064;-58
2023/12/11 02:48:22;;;;;;;9.18;8.02;;;;;;;19.41;42.23;101031.56;4619186;31;20052;-59
2023/12/11 02:50:50;;;;;;;8.43;7.47;;;;;;;19.42;42.02;101035.97;4608550;31;20060;-58
2023/12/11 02:53:17;;;;;;;9.82;8.65;;;;;;;19.40;42.03;101019.97;4609224;31;20048;-58
2023/12/11 02:55:46;;;;;;;10.98;7.85;;;;;;;19.41;41.97;101018.16;4617419;31;20056;-64
2023/12/11 02:58:13;;;;;;;8.75;7.85;;;;;;;19.40;41.97;101024.47;4619137;31;20060;-58
2023/12/11 03:00:41;;;;;;;9.38;8.40;;;;;;;19.40;42.06;101019.13;4618817;31;20063;-58
2023/12/11 03:03:09;;;;;;;9.45;8.45;;;;;;;19.41;41.81;101007.41;4617467;31;20056;-58
2023/12/11 03:05:36;;;;;;;9.00;7.53;;;;;;;19.40;42.11;100998.47;4617645;31;20059;-63
2023/12/11 03:08:05;;;;;;;8.55;7.20;;;;;;;19.40;42.08;100989.56;4619220;31;20055;-58
2023/12/11 03:10:33;;;;;;;9.65;8.55;;;;;;;19.39;42.13;100991.41;4618181;31;20056;-58
2023/12/11 03:13:00;;;;;;;9.90;7.88;;;;;;;19.40;42.21;100978.84;4617156;31;20083;-58
2023/12/11 03:15:30;;;;;;;9.20;8.10;;;;;;;19.40;42.08;100986.91;4617642;31;20063;-58
2023/12/11 03:17:58;;;;;;;8.48;7.45;;;;;;;19.40;42.06;100993.13;4620189;31;20056;-65
2023/12/11 03:20:25;;;;;;;10.82;8.13;;;;;;;19.39;42.18;100983.34;4620970;31;20063;-65
2023/12/11 03:22:53;;;;;;;9.25;7.97;;;;;;;19.39;42.19;100975.31;4620682;31;20051;-65
2023/12/11 03:25:20;;;;;;;9.57;7.78;;;;;;;19.39;42.23;100977.16;4620555;31;20063;-65
2023/12/11 03:27:48;;;;;;;9.25;7.85;;;;;;;19.39;42.23;100971.78;4622768;31;20059;-65
2023/12/11 03:30:16;;;;;;;9.43;8.25;;;;;;;19.39;42.36;100969.09;4621089;31;20074;-66
2023/12/11 03:32:43;;;;;;;9.23;7.88;;;;;;;19.38;42.20;100973.63;4620376;31;20059;-65
2023/12/11 03:35:11;;;;;;;8.82;7.93;;;;;;;19.37;42.49;100979.13;4620811;31;20063;-66
2023/12/11 03:37:38;;;;;;;8.52;7.57;;;;;;;19.38;42.42;100980.81;4622345;31;20059;-59
2023/12/11 03:40:06;;;;;;;8.35;7.45;;;;;;;19.37;42.29;100988.03;4620432;31;20063;-58
2023/12/11 03:42:35;;;;;;;9.20;8.23;;;;;;;19.37;42.35;100971.06;4620334;31;20059;-58
2023/12/11 03:45:02;;;;;;;8.70;7.65;;;;;;;19.36;42.35;100964.81;4620530;31;20056;-58
2023/12/11 03:47:29;;;;;;;8.60;7.47;;;;;;;19.36;42.36;100969.34;4622666;31;20407;-66
2023/12/11 03:49:57;;;;;;;8.90;7.95;;;;;;;19.37;42.42;100971.91;4620009;31;20066;-66
2023/12/11 03:52:25;;;;;;;9.98;8.18;;;;;;;19.38;42.43;100967.41;4602361;31;20052;-66
2023/12/11 03:54:52;;;;;;;9.82;8.52;;;;;;;19.37;42.38;100960.31;4616332;31;20078;-65
2023/12/11 03:57:20;;;;;;;10.52;7.53;;;;;;;19.35;42.30;100941.66;4622828;31;20058;-66
2023/12/11 03:59:47;;;;;;;9.50;7.80;;;;;;;19.36;42.04;100943.34;4620123;31;20423;-66
2023/12/11 04:02:14;;;;;;;9.43;7.90;;;;;;;19.35;42.20;100925.53;4620283;31;20051;-65
2023/12/11 04:04:42;;;;;;;8.48;7.28;;;;;;;19.36;42.41;100929.06;4619990;31;20063;-66
2023/12/11 04:07:09;;;;;;;8.52;7.57;;;;;;;19.36;42.47;100939.81;4622670;31;20419;-59
2023/12/11 04:09:37;;;;;;;8.25;7.25;;;;;;;19.35;42.49;100932.75;4620296;31;20488;-58
2023/12/11 04:12:04;;;;;;;8.73;7.32;;;;;;;19.35;42.38;100935.44;4618535;31;20059;-58
2023/12/11 04:14:32;;;;;;;9.45;7.60;;;;;;;19.35;42.52;100954.22;4620518;31;20063;-58
2023/12/11 04:16:59;;;;;;;8.07;7.28;;;;;;;19.34;42.33;100939.94;4622544;31;20408;-65
2023/12/11 04:19:26;;;;;;;8.63;7.72;;;;;;;19.35;42.43;100938.13;4619912;31;20055;-66
2023/12/11 04:21:54;;;;;;;10.02;7.75;;;;;;;19.35;42.23;100935.44;4620022;31;20071;-65
2023/12/11 04:24:21;;;;;;;7.88;7.07;;;;;;;19.35;42.29;100943.47;4622071;31;20060;-65
2023/12/11 04:26:49;;;;;;;8.43;7.15;;;;;;;19.35;42.48;100940.81;4621865;31;20063;-58
2023/12/11 04:29:16;;;;;;;8.07;7.20;;;;;;;19.36;42.29;100937.13;4619192;31;20059;-58
2023/12/11 04:31:43;;;;;;;8.35;7.13;;;;;;;19.35;42.39;100952.38;4619008;31;20063;-59
2023/12/11 04:34:11;;;;;;;8.77;7.57;;;;;;;19.35;42.59;100956.91;4619373;31;20063;-58
2023/12/11 04:36:42;;;;;;;8.98;6.43;;;;;;;19.35;42.47;100952.38;4622250;31;20070;-65
2023/12/11 04:39:09;;;;;;;8.52;6.90;;;;;;;19.35;42.42;100935.44;4614830;31;20060;-65
2023/12/11 04:41:37;;;;;;;8.88;6.70;;;;;;;19.34;42.49;100933.72;4619250;31;20384;-65
2023/12/11 04:44:04;;;;;;;7.28;6.53;;;;;;;19.35;42.51;100938.13;4619774;31;20063;-65
2023/12/11 04:46:33;;;;;;;9.05;7.32;;;;;;;19.34;42.34;100925.69;4622050;31;20392;-65
2023/12/11 04:49:00;;;;;;;7.75;6.75;;;;;;;19.33;42.49;100903.34;4614785;31;20055;-65
2023/12/11 04:51:28;;;;;;;7.90;6.63;;;;;;;19.34;42.40;100875.53;4616937;31;20047;-65
2023/12/11 04:53:55;;;;;;;8.02;7.20;;;;;;;19.35;42.58;100889.78;4601351;31;20060;-66
2023/12/11 04:56:24;;;;;;;7.03;6.07;;;;;;;19.35;42.45;100876.38;4621406;31;20051;-58
2023/12/11 04:58:51;;;;;;;7.15;6.28;;;;;;;19.34;42.27;100880.03;4614344;31;20055;-58
2023/12/11 05:01:18;;;;;;;7.38;6.20;;;;;;;19.33;42.31;100906.03;4619237;31;20508;-58
2023/12/11 05:03:46;;;;;;;7.30;6.25;;;;;;;19.33;42.47;100922.16;4618792;31;20056;-58
2023/12/11 05:06:13;;;;;;;7.80;6.72;;;;;;;19.33;42.30;100932.88;4622008;31;20051;-58
2023/12/11 05:08:41;;;;;;;7.55;6.05;;;;;;;19.32;42.55;100920.41;4619061;31;20055;-58
2023/12/11 05:11:08;;;;;;;7.10;6.30;;;;;;;19.33;42.47;100940.09;4618857;31;20062;-59
2023/12/11 05:13:35;;;;;;;7.88;6.78;;;;;;;19.33;42.34;100961.56;4619196;31;20064;-58
2023/12/11 05:16:03;;;;;;;7.43;5.95;;;;;;;19.33;42.47;100973.16;4621820;31;20059;-58
2023/12/11 05:18:31;;;;;;;7.35;6.50;;;;;;;19.32;42.34;100958.00;4618712;31;20067;-58
2023/12/11 05:21:05;;;;;;;7.10;6.18;;;;;;;19.32;42.25;100970.56;4618925;31;20416;-58
2023/12/11 05:23:32;;;;;;;8.40;6.95;;;;;;;19.32;42.32;100970.56;4618823;31;20059;-58
2023/12/11 05:26:00;;;;;;;7.03;6.32;;;;;;;19.32;42.43;100982.16;4620826;31;20059;-65
2023/12/11 05:28:27;;;;;;;6.53;5.85;;;;;;;19.32;42.50;100982.16;4618811;31;20059;-65
2023/12/11 05:30:54;;;;;;;7.35;6.50;;;;;;;19.33;42.37;100980.34;4618671;31;20067;-65
2023/12/11 05:33:22;;;;;;;7.18;6.05;;;;;;;19.32;42.30;100967.88;4618949;31;20408;-65
2023/12/11 05:35:49;;;;;;;7.80;6.70;;;;;;;19.32;42.43;100971.44;4621309;31;20066;-65
2023/12/11 05:38:17;;;;;;;9.82;7.07;;;;;;;19.31;42.16;100966.19;4617989;31;20063;-66
2023/12/11 05:40:45;;;;;;;7.18;6.13;;;;;;;19.31;42.35;100950.94;4618451;31;20062;-65
2023/12/11 05:43:13;;;;;;;6.70;5.72;;;;;;;19.32;42.23;100970.56;4619011;31;20501;-65
2023/12/11 05:45:40;;;;;;;6.75;5.70;;;;;;;19.32;42.43;100975.94;4620535;31;20055;-62
2023/12/11 05:48:10;;;;;;;6.63;5.72;;;;;;;19.33;42.55;100975.00;4618932;31;20055;-58
2023/12/11 05:50:38;;;;;;;6.93;5.57;;;;;;;19.33;42.82;100969.63;4618219;31;20055;-58
2023/12/11 05:53:07;;;;;;;5.82;5.22;;;;;;;19.32;42.67;100984.00;4612968;31;20397;-58
2023/12/11 05:55:35;;;;;;;6.93;5.72;;;;;;;19.32;42.52;100992.91;4606677;31;20059;-58
2023/12/11 05:58:02;;;;;;;6.85;5.82;;;;;;;19.33;42.60;100996.47;4618095;31;20066;-58
2023/12/11 06:00:30;;;;;;;6.05;5.43;;;;;;;19.33;42.62;101007.19;4617946;31;20066;-58
2023/12/11 06:02:57;;;;;;;7.13;6.25;;;;;;;19.33;42.54;100996.47;4619400;31;20056;-58
2023/12/11 06:05:25;;;;;;;7.55;6.15;;;;;;;19.32;42.24;101000.09;4618472;31;20150;-58
2023/12/11 06:07:52;;;;;;;6.20;5.53;;;;;;;19.31;42.37;100995.72;4618307;31;20508;-65
2023/12/11 06:10:20;;;;;;;5.93;5.32;;;;;;;19.32;42.24;101005.47;4618396;31;20074;-65
2023/12/11 06:12:47;;;;;;;6.80;5.65;;;;;;;19.34;42.49;101003.53;4618820;31;20055;-65
2023/12/11 06:15:15;;;;;;;5.97;5.38;;;;;;;19.33;42.52;100993.78;4619654;31;20463;-58
2023/12/11 06:17:42;;;;;;;6.95;6.25;;;;;;;19.33;42.63;101007.19;4619039;30;20064;-58
2023/12/11 06:20:10;;;;;;;6.38;5.78;;;;;;;19.33;42.55;101023.31;4613612;31;20429;-58
2023/12/11 06:22:37;;;;;;;7.15;6.43;;;;;;;19.33;42.46;101012.56;4616405;31;20067;-58
2023/12/11 06:25:05;;;;;;;6.65;5.80;;;;;;;19.32;42.33;100994.75;4623040;31;20063;-58
2023/12/11 06:27:32;;;;;;;6.55;5.85;;;;;;;19.31;42.41;101003.78;4617582;31;20056;-58
2023/12/11 06:30:00;;;;;;;6.60;5.85;;;;;;;19.32;42.46;101018.91;4617496;31;20075;-58
2023/12/11 06:32:27;;;;;;;6.60;5.90;;;;;;;19.33;42.74;101017.94;4618708;31;20059;-58
2023/12/11 06:34:55;;;;;;;6.70;5.95;;;;;;;19.33;42.56;101015.25;4619201;31;20070;-59
2023/12/11 06:37:22;;;;;;;6.50;5.90;;;;;;;19.32;42.62;101017.06;4619148;31;20070;-58
2023/12/11 06:39:50;;;;;;;7.13;5.70;;;;;;;19.32;42.51;101021.56;4617347;31;20068;-58
2023/12/11 06:42:17;;;;;;;7.03;5.85;;;;;;;19.31;42.55;101020.72;4618120;31;20067;-57
2023/12/11 06:44:45;;;;;;;6.55;5.68;;;;;;;19.32;42.37;101013.53;4619043;31;20063;-57
2023/12/11 06:47:13;;;;;;;6.03;5.38;;;;;;;19.31;42.59;101012.69;4617740;31;20412;-57
2023/12/11 06:49:42;;;;;;;6.60;5.65;;;;;;;19.31;42.60;101009.16;4617142;31;20056;-58
2023/12/11 06:52:10;;;;;;;6.88;5.95;;;;;;;19.30;42.22;101028.94;4618173;31;20052;-58
2023/12/11 06:54:37;;;;;;;6.53;5.65;;;;;;;19.30;42.53;101027.09;4609774;31;20055;-58
2023/12/11 06:57:05;;;;;;;6.25;5.60;;;;;;;19.30;42.50;101020.88;4608855;31;20052;-65
2023/12/11 06:59:32;;;;;;;6.22;5.43;;;;;;;19.29;42.48;101028.06;4617302;31;20047;-65
2023/12/11 07:02:00;;;;;;;8.35;6.07;;;;;;;19.29;42.37;101021.84;4618691;31;20063;-65
2023/12/11 07:04:27;;;;;;;6.05;5.45;;;;;;;19.30;42.59;101015.50;4619371;31;20062;-64
2023/12/11 07:06:55;;;;;;;5.93;5.32;;;;;;;19.29;42.61;101016.50;4617681;31;20063;-65
2023/12/11 07:09:23;;;;;;;7.13;5.85;;;;;;;19.29;42.45;101003.91;4617222;31;20052;-65
2023/12/11 07:11:51;;;;;;;6.25;5.25;;;;;;;19.29;42.45;101003.06;4618421;31;20059;-65
2023/12/11 07:14:19;;;;;;;6.93;5.20;;;;;;;19.27;42.47;101009.38;4619044;31;20539;-65
2023/12/11 07:16:46;;;;;;;5.97;5.07;;;;;;;19.27;42.58;101014.75;4617307;31;20511;-65
2023/12/11 07:19:13;;;;;;;8.02;6.03;;;;;;;19.26;42.62;101023.81;4617045;31;20052;-65
2023/12/11 07:21:43;;;;;;;7.75;5.70;;;;;;;19.27;42.59;101019.28;4619448;31;20052;-65
2023/12/11 07:24:10;;;;;;;7.18;5.78;;;;;;;19.26;42.44;100996.97;4618618;31;20412;-65
2023/12/11 07:26:37;;;;;;;6.50;5.75;;;;;;;19.26;42.41;100998.78;4617379;31;20055;-58
2023/12/11 07:29:07;;;;;;;6.80;5.47;;;;;;;19.25;42.25;100989.91;4617648;31;20056;-58
2023/12/11 07:31:35;;;;;;;6.68;5.80;;;;;;;19.26;42.31;100996.13;4619026;31;20055;-58
2023/12/11 07:34:02;;;;;;;6.40;5.68;;;;;;;19.26;42.36;101004.16;4618289;31;20067;-58
2023/12/11 07:36:30;;;;;;;6.90;5.65;;;;;;;19.26;42.47;100988.91;4617282;31;20063;-66
2023/12/11 07:38:57;;;;;;;6.60;5.15;;;;;;;19.27;42.36;100971.81;4617186;31;20114;-65
2023/12/11 07:41:24;;;;;;;7.32;5.82;;;;;;;19.25;42.37;100973.78;4620931;31;20412;-65
2023/12/11 07:43:52;;;;;;;5.93;5.32;;;;;;;19.26;42.40;100977.31;4617799;31;20055;-65
2023/12/11 07:46:20;;;;;;;5.03;4.53;;;;;;;19.26;42.30;100967.44;4616869;31;20067;-58
2023/12/11 07:48:48;;;;;;;5.85;5.00;;;;;;;19.28;42.40;100967.28;4617212;31;20520;-61
2023/12/11 07:51:18;;;;;;;7.30;5.45;;;;;;;19.30;42.57;100973.41;4618330;31;20052;-62
2023/12/11 07:53:46;;;;;;;7.10;5.28;;;;;;;19.30;42.64;100964.50;4616513;31;20060;-62
2023/12/11 07:56:21;;;;;;;6.00;5.22;;;;;;;19.31;42.46;100971.56;4617307;31;20068;-62
2023/12/11 07:58:49;;;;;;;6.10;5.50;;;;;;;19.30;42.66;100969.88;4617097;31;20063;-62
2023/12/11 08:01:17;;;;;;;5.85;4.82;;;;;;;19.29;42.70;100947.53;4619958;31;20060;-62
2023/12/11 08:03:45;;;;;;;7.18;5.45;;;;;;;19.28;42.59;100945.81;4617624;31;20159;-62
2023/12/11 08:06:13;;;;;;;7.00;6.30;;;;;;;19.28;42.71;100953.88;4619681;31;20055;-61
2023/12/11 08:08:43;;;;;;;6.68;5.30;;;;;;;19.29;42.58;100942.19;4620492;31;20505;-65
2023/12/11 08:11:24;;;;;;;6.35;5.20;;;;;;;19.30;42.76;100943.03;4621996;31;20059;-62
2023/12/11 08:13:52;;;;;;;6.38;5.75;;;;;;;19.30;42.87;100943.03;4619983;31;20082;-62
2023/12/11 08:16:20;;;;;;;6.03;5.25;;;;;;;19.30;42.76;100959.13;4619480;31;20056;-62
2023/12/11 08:18:48;;;;;;;6.65;5.93;;;;;;;19.30;42.74;100970.72;4621469;31;20139;-63
2023/12/11 08:21:18;;;;;;;6.60;5.40;;;;;;;19.29;42.60;100971.69;4620400;31;20090;-63
2023/12/11 08:23:50;;;;;;;6.07;5.43;;;;;;;19.28;42.59;100959.25;4619651;31;20059;-63
2023/12/11 08:26:18;;;;;;;5.97;5.37;;;;;;;19.30;42.76;100948.41;4619752;31;20063;-62
2023/12/11 08:28:47;;;;;;;6.95;6.10;;;;;;;19.29;42.78;100946.69;4622745;31;20504;-62
2023/12/11 08:31:15;;;;;;;7.68;6.07;;;;;;;19.29;42.86;100928.75;4608054;31;20053;-62
2023/12/11 08:33:43;;;;;;;7.18;6.07;;;;;;;19.30;42.83;100918.88;4618455;31;20064;-62
2023/12/11 08:36:11;;;;;;;7.60;6.28;;;;;;;19.30;43.11;100910.81;4619628;31;20064;-65
2023/12/11 08:38:39;;;;;;;8.02;6.18;;;;;;;19.31;42.99;100907.16;4625204;31;20074;-65
2023/12/11 08:41:06;;;;;;;7.78;5.57;;;;;;;19.30;43.23;100908.97;4618605;31;20048;-64
2023/12/11 08:43:34;;;;;;;10.05;6.57;;;;;;;19.29;43.29;100915.34;4619416;31;20068;-66
2023/12/11 08:46:01;;;;;;;7.32;6.13;;;;;;;19.30;42.90;100918.88;4619223;31;20060;-65
2023/12/11 08:48:28;;;;;;;7.95;6.05;;;;;;;19.29;43.04;100909.13;4622102;31;20063;-65
2023/12/11 08:50:56;;;;;;;7.88;6.32;;;;;;;19.29;43.13;100901.06;4619292;31;20055;-65
2023/12/11 08:53:24;;;;;;;7.88;6.45;;;;;;;19.29;43.14;100914.50;4618956;31;20066;-65
2023/12/11 08:55:53;;;;;;;8.95;6.32;;;;;;;19.29;42.72;100930.59;4619293;31;20060;-62
2023/12/11 08:58:21;;;;;;;7.82;6.13;;;;;;;19.28;42.75;100916.28;4616760;31;20525;-62
2023/12/11 09:00:49;;;;;;;8.18;6.78;;;;;;;19.27;42.71;100917.28;4619125;31;20060;-62
2023/12/11 09:03:16;;;;;;;8.52;6.85;;;;;;;19.26;42.72;100899.47;4619051;31;20060;-62
2023/12/11 09:05:44;;;;;;;7.28;6.57;;;;;;;19.26;42.74;100904.84;4618965;31;20077;-63
2023/12/11 09:08:11;;;;;;;8.75;6.85;;;;;;;19.27;42.70;100895.81;4621998;31;20055;-62
2023/12/11 09:10:40;;;;;;;7.70;6.25;;;;;;;19.27;42.77;100907.41;4619870;31;20055;-62
2023/12/11 09:13:08;;;;;;;7.38;6.57;;;;;;;19.26;42.86;100897.66;4618859;31;20055;-62
2023/12/11 09:15:36;;;;;;;7.72;6.15;;;;;;;19.27;42.62;100885.06;4618696;31;20064;-63
2023/12/11 09:18:06;;;;;;;8.25;6.53;;;;;;;19.27;42.89;100866.28;4619029;31;20543;-64
2023/12/11 09:20:33;;;;;;;6.72;5.55;;;;;;;19.25;42.92;100866.44;4618730;31;20496;-64
2023/12/11 09:23:01;;;;;;;11.70;8.27;;;;;;;19.26;42.15;100856.53;4621169;31;20063;-64
2023/12/11 09:25:29;;;;;;;10.85;9.20;;;;;;;19.23;41.58;100856.78;4619064;31;20068;-64
2023/12/11 09:27:57;;;;;;;12.23;10.80;;;;;;;19.20;40.65;100846.31;4620217;31;20059;-62
2023/12/11 09:30:25;;;;;;;13.38;11.98;;;;;;;19.15;40.19;100846.69;4618824;31;20058;-62
2023/12/11 09:32:52;;;;;;;14.85;13.32;;;;;;;19.12;39.94;100847.00;4618760;31;20060;-62
2023/12/11 09:35:20;;;;;;;13.55;12.05;;;;;;;19.07;39.55;100854.56;4619159;31;20052;-62
2023/12/11 09:37:48;;;;;;;17.25;13.15;;;;;;;19.01;39.58;100869.34;4618399;31;20051;-62
2023/12/11 09:40:18;;;;;;;15.75;13.10;;;;;;;18.98;39.37;100882.16;4621800;31;20063;-62
2023/12/11 09:42:47;;;;;;;16.27;14.00;;;;;;;18.94;38.96;100891.44;4618292;31;20581;-62
2023/12/11 09:45:18;;;;;;;14.90;13.35;;;;;;;18.90;39.26;100903.41;4619678;31;20540;-62
2023/12/11 09:47:53;;;;;;;14.45;12.73;;;;;;;18.87;39.19;100893.78;4619461;31;20055;-65
2023/12/11 09:50:38;;;;;;;14.27;12.77;;;;;;;18.83;39.30;100886.97;4615216;30;20056;-65
2023/12/11 09:53:06;;;;;;;15.38;11.95;;;;;;;18.82;39.64;100884.41;4617787;31;20059;-65
2023/12/11 09:55:34;;;;;;;12.30;10.95;;;;;;;18.84;40.21;100898.53;4619965;31;20062;-65
2023/12/11 09:58:03;;;;;;;11.50;10.15;;;;;;;18.85;40.53;100887.72;4618819;31;20056;-65
2023/12/11 10:00:32;;;;;;;12.88;9.63;;;;;;;18.88;40.79;100881.22;4613382;31;20074;-65
2023/12/11 10:03:05;;;;;;;11.48;9.05;;;;;;;18.89;40.90;100882.94;4618240;31;20516;-65
2023/12/11 10:05:34;;;;;;;;;;;;;;;18.91;40.99;100899.75;4619037;31;20512;-65
2023/12/11 10:08:05;;;;;;;10.45;8.90;;;;;;;18.95;41.00;100911.94;4618038;31;19929;-62
2023/12/11 10:10:33;;;;;;;11.50;9.45;;;;;;;18.96;41.06;100919.00;4618058;31;20063;-62
2023/12/11 10:13:01;;;;;;;10.85;8.60;;;;;;;18.96;41.17;100903.78;4620798;31;20495;-62
2023/12/11 10:15:34;;;;;;;9.88;8.32;;;;;;;18.99;41.35;100898.13;4617972;31;20086;-62
2023/12/11 10:18:12;;;;;;;10.73;9.02;;;;;;;19.00;41.34;100883.75;4618630;31;20074;-67
2023/12/11 10:20:42;;;;;;;9.05;7.88;;;;;;;19.02;41.26;100859.47;4619461;31;20525;-65
2023/12/11 10:23:11;;;;;;;11.23;9.15;;;;;;;19.02;41.38;100867.50;4620367;31;20504;-64
2023/12/11 10:25:44;;;;;;;10.52;8.73;;;;;;;19.03;41.39;100869.22;4617808;31;20064;-64
2023/12/11 10:28:13;;;;;;;10.15;8.07;;;;;;;19.04;41.24;100852.16;4619784;31;20543;-64
2023/12/11 10:30:55;;;;;;;9.40;8.40;;;;;;;19.05;41.49;100861.06;4620410;31;20527;-64
2023/12/11 10:33:26;;;;;;;10.02;8.93;;;;;;;19.05;41.31;100869.94;4616002;31;20052;-64
2023/12/11 10:36:12;;;;;;;9.70;8.70;;;;;;;19.03;41.20;100872.75;4617731;31;20056;-63
2023/12/11 10:38:40;;;;;;;14.57;11.05;;;;;;;19.02;41.02;100863.00;4617579;31;20059;-63
2023/12/11 10:41:08;;;;;;;11.20;9.70;;;;;;;19.02;41.22;100886.28;4617423;31;20056;-62
2023/12/11 10:43:40;;;;;;;10.55;9.45;;;;;;;19.04;41.21;100913.88;4617428;31;20056;-62
2023/12/11 10:46:27;;;;;;;10.00;8.55;;;;;;;19.06;41.52;100911.03;4619560;31;20067;-65
2023/12/11 10:48:56;;;;;;;9.98;8.52;;;;;;;19.05;41.46;100904.81;4620022;31;20082;-65
2023/12/11 10:51:25;;;;;;;10.95;8.27;;;;;;;19.07;41.52;100891.28;4618647;31;20055;-65
2023/12/11 10:53:53;;;;;;;9.32;8.32;;;;;;;19.06;41.44;100895.78;4617451;31;20056;-65
2023/12/11 10:56:20;;;;;;;10.50;8.43;;;;;;;19.07;41.48;100892.13;4619656;31;20070;-62
2023/12/11 10:58:49;;;;;;;9.88;8.60;;;;;;;19.07;41.53;100878.69;4617520;31;20055;-62
2023/12/11 11:01:17;;;;;;;10.45;8.68;;;;;;;19.06;41.57;100877.00;4630124;30;20043;-62
2023/12/11 11:03:44;;;;;;;11.43;8.98;;;;;;;19.06;41.61;100876.16;4617452;31;20055;-62
2023/12/11 11:06:12;;;;;;;9.45;8.45;;;;;;;19.05;41.63;100880.69;4619842;31;20062;-62
2023/12/11 11:08:40;;;;;;;9.90;8.80;;;;;;;19.04;41.59;100884.34;4617611;31;20064;-65
2023/12/11 11:11:17;;;;;;;12.20;8.25;;;;;;;19.04;41.40;100887.03;4617230;31;20055;-65
2023/12/11 11:14:31;;;;;;;9.70;8.70;;;;;;;19.04;41.60;100873.63;4618358;31;20060;-65
2023/12/11 11:17:01;;;;;;;9.32;7.47;;;;;;;19.03;41.63;100882.63;4610783;31;20059;-62
2023/12/11 11:19:29;;;;;;;10.05;8.40;;;;;;;19.04;41.71;100862.88;4617430;31;20062;-62
2023/12/11 11:22:00;;;;;;;10.00;8.73;;;;;;;19.03;41.77;100856.63;4617107;31;20068;-62
2023/12/11 11:24:28;;;;;;;9.48;8.48;;;;;;;19.05;41.65;100858.38;4617280;31;20060;-62
2023/12/11 11:26:57;;;;;;;9.77;7.75;;;;;;;19.05;41.76;100856.53;4617424;31;20056;-65
2023/12/11 11:29:41;;;;;;;10.43;8.52;;;;;;;19.05;41.65;100835.06;4618152;31;20060;-65
2023/12/11 11:32:11;;;;;;;9.82;8.75;;;;;;;19.05;41.71;100831.53;4611637;31;20113;-65